Garvin, Oklahoma
Current Conditions -  °F | °C
As of 3:55 AM on Saturday 29 Nov 2014 (Local Time) from K4O4 Reporting Station
Overcast Overcast  
Wind Chill:   Ceiling: 100
Heat Index:   Visibility: 0mi
Dew Point:   Wind: 3mph
Humidity: 100%   Direction: 90°E
Pressure: 29.98"   Gusts: NA
Location:  33.95°N, 94.94°W
Report Text: K4O4 290955Z AUTO 09003KT M1/4SM OVC001 06/06 A2998 RMK AO2
Loading
Personal Weather Stations






























Interactive Weather Map New forecast layout! Learn more

10-Day Weather Forecast

Advertisements
Track Severe Weather on mobile